createdAt,value
2018-01-17T00:00:17.396Z,0
2018-01-17T00:02:18.813Z,0
2018-01-17T00:04:20.237Z,0
2018-01-17T00:06:22.542Z,0
2018-01-17T00:08:24.293Z,0
2018-01-17T00:10:25.745Z,0
2018-01-17T00:12:27.159Z,0
2018-01-17T00:14:28.553Z,0
2018-01-17T00:16:29.958Z,0
2018-01-17T00:18:31.419Z,0
2018-01-17T00:20:32.862Z,0
2018-01-17T00:22:35.196Z,0
2018-01-17T00:24:36.653Z,0
2018-01-17T00:26:38.158Z,0
2018-01-17T00:28:39.632Z,0
2018-01-17T00:30:41.128Z,0
2018-01-17T00:32:42.684Z,0
2018-01-17T00:34:44.156Z,0
2018-01-17T00:36:45.629Z,0
2018-01-17T00:39:28.008Z,0
2018-01-17T00:41:29.429Z,0
2018-01-17T00:43:30.824Z,0
2018-01-17T00:45:32.225Z,0
2018-01-17T00:47:33.631Z,0
2018-01-17T00:49:35.690Z,0
2018-01-17T00:51:37.096Z,0
2018-01-17T00:53:38.619Z,0
2018-01-17T00:55:41.000Z,0
2018-01-17T00:57:42.496Z,0
2018-01-17T01:00:24.946Z,0
2018-01-17T01:02:26.354Z,0
2018-01-17T01:04:27.807Z,0
2018-01-17T01:06:29.155Z,0
2018-01-17T01:08:31.441Z,0
2018-01-17T01:10:33.465Z,0
2018-01-17T01:12:35.406Z,0
2018-01-17T01:14:37.518Z,0
2018-01-17T01:16:39.660Z,0
2018-01-17T01:19:22.649Z,0
2018-01-17T01:21:24.023Z,0
2018-01-17T01:23:26.602Z,0
2018-01-17T01:25:27.955Z,0
2018-01-17T01:27:29.381Z,0
2018-01-17T01:29:30.806Z,0
2018-01-17T01:31:32.318Z,0
2018-01-17T01:33:33.833Z,0
2018-01-17T01:35:35.316Z,0
2018-01-17T01:38:17.024Z,0
2018-01-17T01:40:18.426Z,0
2018-01-17T01:42:20.096Z,0
2018-01-17T01:44:21.622Z,0
2018-01-17T01:46:23.010Z,0
2018-01-17T01:48:24.417Z,0
2018-01-17T01:50:25.818Z,0
2018-01-17T01:52:27.216Z,0
2018-01-17T01:54:28.616Z,0
2018-01-17T01:56:30.027Z,0
2018-01-17T01:58:32.530Z,0
2018-01-17T02:00:34.937Z,0
2018-01-17T02:02:36.515Z,0
2018-01-17T02:04:38.065Z,0
2018-01-17T02:06:39.505Z,0
2018-01-17T02:08:40.997Z,0
2018-01-17T02:10:42.503Z,0
2018-01-17T02:12:43.997Z,0
2018-01-17T02:14:45.471Z,0
2018-01-17T02:16:47.896Z,0
2018-01-17T02:18:49.511Z,0
2018-01-17T02:20:51.030Z,0
2018-01-17T02:22:52.506Z,0
2018-01-17T02:24:53.984Z,0
2018-01-17T02:26:56.331Z,0
2018-01-17T02:28:58.159Z,0
2018-01-17T02:30:59.663Z,0
2018-01-17T02:33:01.250Z,0
2018-01-17T02:35:03.625Z,0
2018-01-17T02:37:05.123Z,0
2018-01-17T02:39:06.584Z,0
2018-01-17T02:41:08.117Z,0
2018-01-17T02:43:09.613Z,0
2018-01-17T02:45:11.085Z,0
2018-01-17T02:47:12.865Z,0
2018-01-17T02:49:15.287Z,0
2018-01-17T02:51:16.779Z,0
2018-01-17T02:53:18.240Z,0
2018-01-17T02:55:20.767Z,0
2018-01-17T02:57:22.345Z,0
2018-01-17T02:59:23.869Z,0
2018-01-17T03:01:26.249Z,0
2018-01-17T03:03:28.492Z,0
2018-01-17T03:05:30.880Z,0
2018-01-17T03:07:33.286Z,0
2018-01-17T03:09:34.705Z,0
2018-01-17T03:11:36.211Z,0
2018-01-17T03:13:37.717Z,0
2018-01-17T03:15:39.194Z,0
2018-01-17T03:17:40.702Z,0
2018-01-17T03:19:42.176Z,0
2018-01-17T03:21:43.640Z,0
2018-01-17T03:23:45.133Z,0
2018-01-17T03:25:46.639Z,0
2018-01-17T03:27:48.148Z,0
2018-01-17T03:29:49.626Z,0
2018-01-17T03:31:51.079Z,0
2018-01-17T03:33:52.529Z,0
2018-01-17T03:35:54.005Z,0
2018-01-17T03:37:55.524Z,0
2018-01-17T03:39:57.012Z,0
2018-01-17T03:41:58.485Z,0
2018-01-17T03:44:00.026Z,0
2018-01-17T03:46:01.523Z,0
2018-01-17T03:48:03.007Z,0
2018-01-17T03:50:05.046Z,0
2018-01-17T03:52:06.844Z,0
2018-01-17T03:54:08.579Z,0
2018-01-17T03:56:10.385Z,0
2018-01-17T03:58:52.985Z,0
2018-01-17T04:00:54.390Z,0
2018-01-17T04:02:55.885Z,0
2018-01-17T04:04:57.288Z,0
2018-01-17T04:06:58.683Z,0
2018-01-17T04:09:00.084Z,0
2018-01-17T04:11:01.484Z,0
2018-01-17T04:13:02.901Z,0
2018-01-17T04:15:04.305Z,0
2018-01-17T04:17:06.066Z,0
2018-01-17T04:19:48.935Z,0
2018-01-17T04:21:50.441Z,0
2018-01-17T04:23:52.052Z,0
2018-01-17T04:25:53.784Z,0
2018-01-17T04:27:55.575Z,0
2018-01-17T04:29:57.039Z,0
2018-01-17T04:31:58.564Z,0
2018-01-17T04:34:00.080Z,0
2018-01-17T04:36:02.274Z,0
2018-01-17T04:38:04.540Z,0
2018-01-17T04:40:06.047Z,0
2018-01-17T04:42:07.533Z,0
2018-01-17T04:44:09.052Z,0
2018-01-17T04:46:11.355Z,0
2018-01-17T04:48:13.674Z,0
2018-01-17T04:50:15.170Z,0
2018-01-17T04:52:16.741Z,0
2018-01-17T04:54:18.635Z,0
2018-01-17T04:56:20.242Z,0
2018-01-17T04:58:21.746Z,0
2018-01-17T05:00:23.247Z,0
2018-01-17T05:02:24.790Z,0
2018-01-17T05:04:26.274Z,0
2018-01-17T05:06:27.766Z,0
2018-01-17T05:08:29.286Z,0
2018-01-17T05:10:30.794Z,0
2018-01-17T05:12:32.289Z,0
2018-01-17T05:15:15.086Z,0
2018-01-17T05:17:16.475Z,0
2018-01-17T05:19:59.398Z,0
2018-01-17T05:22:00.788Z,0
2018-01-17T05:24:03.747Z,0
2018-01-17T05:26:05.276Z,0
2018-01-17T05:28:06.689Z,0
2018-01-17T05:30:08.725Z,0
2018-01-17T05:32:10.838Z,0
2018-01-17T05:34:12.583Z,0
2018-01-17T05:36:14.298Z,0
2018-01-17T05:38:16.039Z,0
2018-01-17T05:40:17.501Z,0
2018-01-17T05:42:19.013Z,0
2018-01-17T05:44:20.421Z,0
2018-01-17T05:46:21.946Z,0
2018-01-17T05:48:23.415Z,0
2018-01-17T05:50:24.979Z,0
2018-01-17T05:53:07.358Z,0
2018-01-17T05:55:08.758Z,0
2018-01-17T05:57:10.153Z,0
2018-01-17T05:59:11.562Z,0
2018-01-17T06:01:13.405Z,0
2018-01-17T06:03:15.160Z,0
2018-01-17T06:05:16.811Z,0
2018-01-17T06:07:18.353Z,0
2018-01-17T06:09:19.843Z,0
2018-01-17T06:11:21.352Z,0
2018-01-17T06:13:22.752Z,0
2018-01-17T06:15:24.152Z,0
2018-01-17T06:17:25.552Z,0
2018-01-17T06:20:08.664Z,0
2018-01-17T06:22:10.296Z,0
2018-01-17T06:24:11.665Z,0
2018-01-17T06:26:13.066Z,0
2018-01-17T06:28:14.469Z,0
2018-01-17T06:30:15.867Z,0
2018-01-17T06:32:17.301Z,0
2018-01-17T06:34:18.744Z,0
2018-01-17T06:36:20.448Z,0
2018-01-17T06:38:22.325Z,0
2018-01-17T06:40:23.832Z,0
2018-01-17T06:42:25.324Z,0
2018-01-17T06:44:27.273Z,0
2018-01-17T06:46:29.352Z,0
2018-01-17T06:48:30.852Z,0
2018-01-17T06:50:32.252Z,0
2018-01-17T06:52:33.695Z,0
2018-01-17T06:54:35.885Z,0
2018-01-17T06:56:37.518Z,0
2018-01-17T06:58:38.994Z,0
2018-01-17T07:00:40.523Z,0
2018-01-17T07:02:42.731Z,0
2018-01-17T07:04:44.193Z,0
2018-01-17T07:06:45.622Z,0
2018-01-17T07:08:47.716Z,0
2018-01-17T07:10:49.225Z,4
2018-01-17T07:12:51.177Z,4
2018-01-17T07:14:52.658Z,4
2018-01-17T07:16:54.195Z,4
2018-01-17T07:19:36.587Z,4
2018-01-17T07:21:37.990Z,0
2018-01-17T07:23:39.388Z,0
2018-01-17T07:25:40.805Z,0
2018-01-17T07:27:42.719Z,4
2018-01-17T07:29:44.158Z,0
2018-01-17T07:31:45.556Z,4
2018-01-17T07:33:47.572Z,8
2018-01-17T07:35:49.288Z,12
2018-01-17T07:37:50.764Z,16
2018-01-17T07:40:33.554Z,16
2018-01-17T07:42:35.111Z,20
2018-01-17T07:44:36.615Z,32
2018-01-17T07:46:38.018Z,56
2018-01-17T07:48:39.417Z,84
2018-01-17T07:50:40.820Z,72
2018-01-17T07:52:42.222Z,72
2018-01-17T07:54:43.627Z,56
2018-01-17T07:56:45.032Z,56
2018-01-17T07:58:46.436Z,68
2018-01-17T08:00:48.355Z,72
2018-01-17T08:02:49.731Z,100
2018-01-17T08:04:51.485Z,136
2018-01-17T08:06:52.899Z,152
2018-01-17T08:08:54.307Z,176
2018-01-17T08:10:56.086Z,188
2018-01-17T08:12:58.329Z,184
2018-01-17T08:14:59.698Z,200
2018-01-17T08:17:01.285Z,196
2018-01-17T08:19:02.965Z,228
2018-01-17T08:21:04.925Z,284
2018-01-17T08:23:06.817Z,340
2018-01-17T08:25:08.345Z,392
2018-01-17T08:27:09.880Z,428
2018-01-17T08:29:11.303Z,436
2018-01-17T08:31:12.975Z,480
2018-01-17T08:33:14.458Z,528
2018-01-17T08:35:16.053Z,564
2018-01-17T08:37:17.584Z,648
2018-01-17T08:39:19.257Z,776
2018-01-17T08:41:20.748Z,920
2018-01-17T08:43:22.272Z,1072
2018-01-17T08:45:23.773Z,1192
2018-01-17T08:47:25.642Z,1252
2018-01-17T08:49:27.583Z,1328
2018-01-17T08:51:29.086Z,1376
2018-01-17T08:53:30.874Z,1396
2018-01-17T08:55:32.398Z,1332
2018-01-17T08:57:34.169Z,1228
2018-01-17T08:59:36.026Z,1156
2018-01-17T09:01:37.880Z,1316
2018-01-17T09:03:39.674Z,1664
2018-01-17T09:05:41.335Z,2068
2018-01-17T09:08:24.395Z,2292
2018-01-17T09:10:25.790Z,2992
2018-01-17T09:12:27.907Z,3896
2018-01-17T09:14:29.359Z,5480
2018-01-17T09:16:30.998Z,9328
2018-01-17T09:18:32.472Z,12940
2018-01-17T09:20:33.984Z,12756
2018-01-17T09:22:35.401Z,10124
2018-01-17T09:24:36.946Z,22016
2018-01-17T09:26:38.416Z,19360
2018-01-17T09:28:39.853Z,4012
2018-01-17T09:30:41.429Z,16192
2018-01-17T09:32:43.102Z,17536
2018-01-17T09:34:44.806Z,7220
2018-01-17T09:36:46.293Z,26752
2018-01-17T09:38:47.822Z,28256
2018-01-17T09:40:49.522Z,33856
2018-01-17T09:42:51.202Z,39776
2018-01-17T09:44:53.364Z,34752
2018-01-17T09:46:55.187Z,39200
2018-01-17T09:48:57.506Z,41376
2018-01-17T09:50:59.625Z,40256
2018-01-17T09:53:01.318Z,23360
2018-01-17T09:55:03.380Z,5764
2018-01-17T09:57:05.095Z,7156
2018-01-17T09:59:07.390Z,4272
2018-01-17T10:01:09.064Z,3696
2018-01-17T10:03:10.851Z,4080
2018-01-17T10:05:12.609Z,4624
2018-01-17T10:07:14.247Z,4456
2018-01-17T10:09:15.965Z,3644
2018-01-17T10:11:17.647Z,4396
2018-01-17T10:13:19.300Z,4184
2018-01-17T10:15:22.733Z,3844
2018-01-17T10:17:26.016Z,2792
2018-01-17T10:19:27.727Z,2060
2018-01-17T10:21:29.404Z,1824
2018-01-17T10:23:31.120Z,2360
2018-01-17T10:25:32.904Z,2616
2018-01-17T10:27:35.334Z,2360
2018-01-17T10:29:37.044Z,2792
2018-01-17T10:31:38.773Z,2800
2018-01-17T10:33:40.440Z,3608
2018-01-17T10:35:42.229Z,3364
2018-01-17T10:37:43.853Z,3008
2018-01-17T10:39:45.397Z,3324
2018-01-17T10:41:47.749Z,3340
2018-01-17T10:43:49.434Z,3072
2018-01-17T10:45:51.730Z,2680
2018-01-17T10:47:54.172Z,3360
2018-01-17T10:49:55.706Z,1972
2018-01-17T10:51:57.403Z,2032
2018-01-17T10:53:58.900Z,2172
2018-01-17T10:56:01.148Z,2184
2018-01-17T10:58:02.808Z,2036
2018-01-17T11:00:04.362Z,2020
2018-01-17T11:02:06.004Z,1932
2018-01-17T11:04:07.622Z,1560
2018-01-17T11:06:09.374Z,1228
2018-01-17T11:08:11.077Z,1044
2018-01-17T11:10:12.784Z,1184
2018-01-17T11:12:14.490Z,1528
2018-01-17T11:14:16.403Z,1360
2018-01-17T11:16:18.565Z,1096
2018-01-17T11:18:20.383Z,912
2018-01-17T11:20:22.144Z,1184
2018-01-17T11:22:23.872Z,1716
2018-01-17T11:24:25.746Z,1692
2018-01-17T11:26:27.498Z,1588
2018-01-17T11:28:29.092Z,1612
2018-01-17T11:30:30.671Z,1316
2018-01-17T11:32:32.206Z,1156
2018-01-17T11:34:33.702Z,1136
2018-01-17T11:36:35.220Z,1140
2018-01-17T11:38:36.828Z,1168
2018-01-17T11:40:38.542Z,876
2018-01-17T11:42:40.499Z,624
2018-01-17T11:44:42.076Z,336
2018-01-17T11:46:43.652Z,244
2018-01-17T11:48:45.094Z,200
2018-01-17T11:50:46.830Z,184
2018-01-17T11:52:48.377Z,232
2018-01-17T11:54:50.286Z,252
2018-01-17T11:56:52.026Z,276
2018-01-17T11:58:53.769Z,268
2018-01-17T12:00:55.542Z,220
2018-01-17T12:02:57.305Z,164
2018-01-17T12:04:59.090Z,148
2018-01-17T12:07:00.824Z,156
2018-01-17T12:09:02.810Z,180
2018-01-17T12:11:04.551Z,208
2018-01-17T12:13:06.224Z,204
2018-01-17T12:15:07.940Z,152
2018-01-17T12:17:10.218Z,136
2018-01-17T12:19:11.863Z,132
2018-01-17T12:21:13.882Z,156
2018-01-17T12:23:15.731Z,212
2018-01-17T12:25:17.266Z,252
2018-01-17T12:27:18.737Z,352
2018-01-17T12:29:20.250Z,492
2018-01-17T12:31:21.773Z,916
2018-01-17T12:33:23.359Z,1016
2018-01-17T12:35:24.854Z,836
2018-01-17T12:37:26.534Z,660
2018-01-17T12:39:28.156Z,608
2018-01-17T12:41:29.657Z,404
2018-01-17T12:43:31.306Z,440
2018-01-17T12:45:32.940Z,320
2018-01-17T12:47:34.493Z,208
2018-01-17T12:49:35.974Z,200
2018-01-17T12:51:37.620Z,260
2018-01-17T12:53:39.110Z,360
2018-01-17T12:55:40.687Z,420
2018-01-17T12:57:42.237Z,420
2018-01-17T12:59:44.030Z,492
2018-01-17T13:01:45.922Z,544
2018-01-17T13:03:47.759Z,564
2018-01-17T13:05:49.488Z,600
2018-01-17T13:07:50.977Z,700
2018-01-17T13:09:52.406Z,820
2018-01-17T13:11:53.887Z,1060
2018-01-17T13:13:55.335Z,1108
2018-01-17T13:15:56.746Z,1036
2018-01-17T13:17:58.183Z,828
2018-01-17T13:19:59.607Z,676
2018-01-17T13:22:00.997Z,556
2018-01-17T13:24:02.403Z,552
2018-01-17T13:26:03.810Z,612
2018-01-17T13:28:05.219Z,880
2018-01-17T13:30:06.631Z,1104
2018-01-17T13:32:08.046Z,1332
2018-01-17T13:34:09.461Z,1776
2018-01-17T13:36:11.145Z,2428
2018-01-17T13:38:12.804Z,2812
2018-01-17T13:40:14.534Z,1968
2018-01-17T13:42:16.224Z,1848
2018-01-17T13:44:17.897Z,1556
2018-01-17T13:46:19.658Z,1412
2018-01-17T13:48:21.157Z,1000
2018-01-17T13:50:22.623Z,1052
2018-01-17T13:52:24.034Z,1160
2018-01-17T13:54:25.526Z,1040
2018-01-17T13:56:26.910Z,1028
2018-01-17T13:58:28.310Z,1476
2018-01-17T14:00:29.722Z,2076
2018-01-17T14:02:31.128Z,1332
2018-01-17T14:04:32.560Z,788
2018-01-17T14:06:33.966Z,416
2018-01-17T14:08:35.374Z,400
2018-01-17T14:10:36.777Z,512
2018-01-17T14:12:38.399Z,628
2018-01-17T14:14:39.851Z,760
2018-01-17T14:16:41.276Z,980
2018-01-17T14:18:42.704Z,1224
2018-01-17T14:20:44.201Z,1428
2018-01-17T14:22:45.700Z,1392
2018-01-17T14:24:47.165Z,1224
2018-01-17T14:26:48.584Z,876
2018-01-17T14:28:49.995Z,868
2018-01-17T14:30:51.402Z,1032
2018-01-17T14:32:52.796Z,852
2018-01-17T14:34:54.350Z,760
2018-01-17T14:36:55.910Z,552
2018-01-17T14:38:57.393Z,384
2018-01-17T14:40:59.040Z,280
2018-01-17T14:43:00.558Z,300
2018-01-17T14:45:02.009Z,316
2018-01-17T14:47:03.454Z,292
2018-01-17T14:49:04.904Z,308
2018-01-17T14:51:06.662Z,368
2018-01-17T14:53:08.763Z,392
2018-01-17T14:55:10.262Z,516
2018-01-17T14:57:11.747Z,496
2018-01-17T14:59:13.184Z,656
2018-01-17T15:01:14.745Z,608
2018-01-17T15:03:16.301Z,488
2018-01-17T15:05:17.743Z,468
2018-01-17T15:07:19.191Z,484
2018-01-17T15:09:20.715Z,536
2018-01-17T15:11:22.191Z,548
2018-01-17T15:13:23.645Z,552
2018-01-17T15:15:25.336Z,460
2018-01-17T15:17:26.966Z,348
2018-01-17T15:19:28.653Z,308
2018-01-17T15:21:30.302Z,260
2018-01-17T15:23:32.040Z,280
2018-01-17T15:25:33.999Z,404
2018-01-17T15:27:36.202Z,524
2018-01-17T15:29:38.235Z,488
2018-01-17T15:31:39.915Z,432
2018-01-17T15:33:41.821Z,360
2018-01-17T15:35:43.704Z,204
2018-01-17T15:37:45.163Z,104
2018-01-17T15:39:47.292Z,60
2018-01-17T15:41:49.019Z,48
2018-01-17T15:43:50.554Z,40
2018-01-17T15:45:52.085Z,36
2018-01-17T15:47:53.549Z,32
2018-01-17T15:49:54.983Z,28
2018-01-17T15:51:56.533Z,32
2018-01-17T15:53:58.274Z,36
2018-01-17T15:55:59.914Z,32
2018-01-17T15:58:01.502Z,28
2018-01-17T16:00:03.032Z,24
2018-01-17T16:02:04.585Z,16
2018-01-17T16:04:06.108Z,12
2018-01-17T16:06:07.670Z,12
2018-01-17T16:08:09.185Z,8
2018-01-17T16:10:10.717Z,4
2018-01-17T16:12:12.230Z,4
2018-01-17T16:14:13.736Z,4
2018-01-17T16:16:15.266Z,4
2018-01-17T16:18:16.738Z,4
2018-01-17T16:20:18.214Z,4
2018-01-17T16:22:19.749Z,0
2018-01-17T16:24:21.222Z,4
2018-01-17T16:26:22.690Z,0
2018-01-17T16:28:24.252Z,0
2018-01-17T16:30:25.986Z,0
2018-01-17T16:32:27.738Z,0
2018-01-17T16:34:29.409Z,0
2018-01-17T16:36:31.137Z,0
2018-01-17T16:38:32.768Z,0
2018-01-17T16:40:34.382Z,0
2018-01-17T16:42:36.081Z,0
2018-01-17T16:44:37.784Z,0
2018-01-17T16:46:39.307Z,0
2018-01-17T16:48:41.469Z,0
2018-01-17T16:50:43.183Z,0
2018-01-17T16:52:45.373Z,0
2018-01-17T16:54:46.998Z,0
2018-01-17T16:56:48.716Z,0
2018-01-17T16:58:50.472Z,0
2018-01-17T17:00:52.518Z,0
2018-01-17T17:02:54.355Z,0
2018-01-17T17:04:55.807Z,0
2018-01-17T17:06:57.257Z,0
2018-01-17T17:08:58.708Z,0
2018-01-17T17:11:00.189Z,0
2018-01-17T17:13:01.597Z,0
2018-01-17T17:15:03.082Z,0
2018-01-17T17:17:04.583Z,0
2018-01-17T17:19:06.053Z,0
2018-01-17T17:21:07.557Z,0
2018-01-17T17:23:09.066Z,0
2018-01-17T17:25:10.480Z,0
2018-01-17T17:27:11.927Z,0
2018-01-17T17:29:13.434Z,0
2018-01-17T17:31:14.879Z,0
2018-01-17T17:33:16.337Z,0
2018-01-17T17:35:17.888Z,0
2018-01-17T17:37:19.320Z,0
2018-01-17T17:39:20.822Z,0
2018-01-17T17:41:22.343Z,0
2018-01-17T17:43:23.994Z,0
2018-01-17T17:45:26.170Z,0
2018-01-17T17:47:27.848Z,0
2018-01-17T17:49:29.523Z,0
2018-01-17T17:51:31.242Z,0
2018-01-17T17:53:33.255Z,0
2018-01-17T17:55:35.359Z,0
2018-01-17T17:57:37.345Z,0
2018-01-17T17:59:38.935Z,0
2018-01-17T18:01:40.733Z,0
2018-01-17T18:03:42.375Z,0
2018-01-17T18:05:43.889Z,0
2018-01-17T18:07:45.307Z,0
2018-01-17T18:09:46.772Z,0
2018-01-17T18:11:48.245Z,0
2018-01-17T18:13:49.754Z,0
2018-01-17T18:15:51.250Z,0
2018-01-17T18:17:52.749Z,0
2018-01-17T18:19:54.207Z,0
2018-01-17T18:21:55.873Z,0
2018-01-17T18:23:57.451Z,0
2018-01-17T18:25:59.088Z,0
2018-01-17T18:28:01.350Z,0
2018-01-17T18:30:02.987Z,0
2018-01-17T18:32:04.671Z,0
2018-01-17T18:34:06.134Z,0
2018-01-17T18:36:07.610Z,0
2018-01-17T18:38:09.278Z,0
2018-01-17T18:40:10.915Z,0
2018-01-17T18:42:12.895Z,0
2018-01-17T18:44:14.322Z,0
2018-01-17T18:46:15.725Z,0
2018-01-17T18:48:17.150Z,0
2018-01-17T18:50:18.582Z,0
2018-01-17T18:52:20.349Z,0
2018-01-17T18:54:21.804Z,0
2018-01-17T18:56:23.269Z,0
2018-01-17T18:58:24.764Z,0
2018-01-17T19:00:26.238Z,0
2018-01-17T19:02:27.725Z,0
2018-01-17T19:04:29.229Z,0
2018-01-17T19:06:30.769Z,0
2018-01-17T19:08:32.323Z,0
2018-01-17T19:10:33.835Z,0
2018-01-17T19:12:35.285Z,0
2018-01-17T19:14:36.773Z,0
2018-01-17T19:16:38.270Z,0
2018-01-17T19:18:40.106Z,0
2018-01-17T19:20:41.585Z,0
2018-01-17T19:22:43.197Z,0
2018-01-17T19:24:44.654Z,0
2018-01-17T19:26:46.220Z,0
2018-01-17T19:28:47.677Z,0
2018-01-17T19:30:49.155Z,0
2018-01-17T19:32:50.648Z,0
2018-01-17T19:34:52.149Z,0
2018-01-17T19:36:53.650Z,0
2018-01-17T19:38:55.094Z,0
2018-01-17T19:40:56.521Z,0
2018-01-17T19:42:58.044Z,0
2018-01-17T19:44:59.520Z,0
2018-01-17T19:47:00.919Z,0
2018-01-17T19:49:02.403Z,0
2018-01-17T19:51:03.887Z,0
2018-01-17T19:53:05.347Z,0
2018-01-17T19:55:07.021Z,0
2018-01-17T19:57:08.504Z,0
2018-01-17T19:59:10.023Z,0
2018-01-17T20:01:11.522Z,0
2018-01-17T20:03:12.986Z,0
2018-01-17T20:05:14.489Z,0
2018-01-17T20:07:15.961Z,0
2018-01-17T20:09:17.432Z,0
2018-01-17T20:11:18.907Z,0
2018-01-17T20:13:20.378Z,0
2018-01-17T20:15:21.846Z,0
2018-01-17T20:17:23.344Z,0
2018-01-17T20:19:24.873Z,0
2018-01-17T20:21:26.301Z,0
2018-01-17T20:23:27.727Z,0
2018-01-17T20:25:29.227Z,0
2018-01-17T20:27:30.708Z,0
2018-01-17T20:29:32.472Z,0
2018-01-17T20:31:33.997Z,0
2018-01-17T20:33:35.448Z,0
2018-01-17T20:35:37.735Z,0
2018-01-17T20:37:39.248Z,0
2018-01-17T20:39:40.707Z,0
2018-01-17T20:41:42.123Z,0
2018-01-17T20:43:43.530Z,0
2018-01-17T20:45:44.942Z,0
2018-01-17T20:47:47.368Z,0
2018-01-17T20:49:49.503Z,0
2018-01-17T20:51:51.775Z,0
2018-01-17T20:53:53.238Z,0
2018-01-17T20:55:54.787Z,0
2018-01-17T20:57:56.331Z,0
2018-01-17T20:59:57.984Z,0
2018-01-17T21:01:59.477Z,0
2018-01-17T21:04:00.955Z,0
2018-01-17T21:06:02.652Z,0
2018-01-17T21:08:04.386Z,0
2018-01-17T21:10:05.840Z,0
2018-01-17T21:12:07.302Z,0
2018-01-17T21:14:08.867Z,0
2018-01-17T21:16:10.323Z,0
2018-01-17T21:18:11.798Z,0
2018-01-17T21:20:13.304Z,0
2018-01-17T21:23:00.344Z,0
2018-01-17T21:25:01.725Z,0
2018-01-17T21:27:03.138Z,0
2018-01-17T21:29:04.572Z,0
2018-01-17T21:31:06.094Z,0
2018-01-17T21:33:07.588Z,0
2018-01-17T21:35:09.071Z,0
2018-01-17T21:37:10.474Z,0
2018-01-17T21:39:11.882Z,0
2018-01-17T21:41:13.349Z,0
2018-01-17T21:43:15.349Z,0
2018-01-17T21:45:17.273Z,0
2018-01-17T21:47:18.952Z,0
2018-01-17T21:49:20.519Z,0
2018-01-17T21:51:21.945Z,0
2018-01-17T21:53:23.347Z,0
2018-01-17T21:55:24.793Z,0
2018-01-17T21:57:26.305Z,0
2018-01-17T21:59:27.809Z,0
2018-01-17T22:02:10.251Z,0
2018-01-17T22:04:11.666Z,0
2018-01-17T22:06:13.083Z,0
2018-01-17T22:08:14.893Z,0
2018-01-17T22:10:16.296Z,0
2018-01-17T22:12:17.700Z,0
2018-01-17T22:14:19.111Z,0
2018-01-17T22:16:20.553Z,0
2018-01-17T22:18:22.029Z,0
2018-01-17T22:20:23.605Z,0
2018-01-17T22:22:25.115Z,0
2018-01-17T22:24:26.723Z,0
2018-01-17T22:26:28.180Z,0
2018-01-17T22:28:29.585Z,0
2018-01-17T22:30:30.992Z,0
2018-01-17T22:32:32.399Z,0
2018-01-17T22:34:33.811Z,0
2018-01-17T22:36:35.984Z,0
2018-01-17T22:38:38.175Z,0
2018-01-17T22:40:39.943Z,0
2018-01-17T22:42:41.377Z,0
2018-01-17T22:44:42.851Z,0
2018-01-17T22:46:44.402Z,0
2018-01-17T22:48:46.509Z,0
2018-01-17T22:50:48.851Z,0
2018-01-17T22:52:50.794Z,0
2018-01-17T22:54:52.478Z,0
2018-01-17T22:56:54.668Z,0
2018-01-17T22:58:56.375Z,0
2018-01-17T23:00:58.164Z,0
2018-01-17T23:02:59.806Z,0
2018-01-17T23:05:01.341Z,0
2018-01-17T23:07:02.858Z,0
2018-01-17T23:09:05.388Z,0
2018-01-17T23:11:07.404Z,0
2018-01-17T23:13:09.287Z,0
2018-01-17T23:15:11.198Z,0
2018-01-17T23:17:13.278Z,0
2018-01-17T23:19:14.819Z,0
2018-01-17T23:21:57.731Z,0
2018-01-17T23:23:59.524Z,0
2018-01-17T23:26:01.104Z,0
2018-01-17T23:28:03.280Z,0
2018-01-17T23:30:04.932Z,0
2018-01-17T23:32:06.723Z,0
2018-01-17T23:34:08.147Z,0
2018-01-17T23:36:09.973Z,0
2018-01-17T23:38:11.813Z,0
2018-01-17T23:40:13.353Z,0
2018-01-17T23:42:15.284Z,0
2018-01-17T23:44:16.839Z,0
2018-01-17T23:46:18.942Z,0
2018-01-17T23:48:20.425Z,0
2018-01-17T23:50:21.954Z,0
2018-01-17T23:52:23.828Z,0
2018-01-17T23:54:26.040Z,0
2018-01-17T23:56:27.959Z,0
2018-01-17T23:58:29.440Z,0
